sensor_id;sensor_type;location;lat;lon;timestamp;temperature;humidity
15355;DHT22;7777;52.254;9.618;2022-07-06T00:01:51;15.90;90.50
15355;DHT22;7777;52.254;9.618;2022-07-06T00:04:18;15.90;90.50
15355;DHT22;7777;52.254;9.618;2022-07-06T00:06:44;15.90;90.10
15355;DHT22;7777;52.254;9.618;2022-07-06T00:09:10;16.00;90.30
15355;DHT22;7777;52.254;9.618;2022-07-06T00:11:35;15.90;90.30
15355;DHT22;7777;52.254;9.618;2022-07-06T00:14:01;15.90;90.50
15355;DHT22;7777;52.254;9.618;2022-07-06T00:16:27;15.90;90.40
15355;DHT22;7777;52.254;9.618;2022-07-06T00:18:54;15.80;90.40
15355;DHT22;7777;52.254;9.618;2022-07-06T00:21:20;15.90;90.50
15355;DHT22;7777;52.254;9.618;2022-07-06T00:23:45;15.90;90.70
15355;DHT22;7777;52.254;9.618;2022-07-06T00:26:12;15.80;90.60
15355;DHT22;7777;52.254;9.618;2022-07-06T00:28:38;15.80;90.50
15355;DHT22;7777;52.254;9.618;2022-07-06T00:31:04;15.80;90.40
15355;DHT22;7777;52.254;9.618;2022-07-06T00:33:31;15.80;90.10
15355;DHT22;7777;52.254;9.618;2022-07-06T00:35:58;15.80;89.80
15355;DHT22;7777;52.254;9.618;2022-07-06T00:38:24;15.90;90.30
15355;DHT22;7777;52.254;9.618;2022-07-06T00:40:49;15.90;90.30
15355;DHT22;7777;52.254;9.618;2022-07-06T00:43:15;15.90;90.30
15355;DHT22;7777;52.254;9.618;2022-07-06T00:45:41;15.90;89.40
15355;DHT22;7777;52.254;9.618;2022-07-06T00:48:07;15.90;88.90
15355;DHT22;7777;52.254;9.618;2022-07-06T00:50:33;15.90;89.10
15355;DHT22;7777;52.254;9.618;2022-07-06T00:53:02;16.00;89.10
15355;DHT22;7777;52.254;9.618;2022-07-06T00:55:30;15.90;89.20
15355;DHT22;7777;52.254;9.618;2022-07-06T00:57:58;16.00;88.60
15355;DHT22;7777;52.254;9.618;2022-07-06T01:00:27;16.00;88.30
15355;DHT22;7777;52.254;9.618;2022-07-06T01:02:54;16.00;88.80
15355;DHT22;7777;52.254;9.618;2022-07-06T01:05:20;16.00;87.90
15355;DHT22;7777;52.254;9.618;2022-07-06T01:07:48;16.10;87.70
15355;DHT22;7777;52.254;9.618;2022-07-06T01:10:16;16.10;87.10
15355;DHT22;7777;52.254;9.618;2022-07-06T01:12:44;16.20;88.10
15355;DHT22;7777;52.254;9.618;2022-07-06T01:15:15;16.20;86.90
15355;DHT22;7777;52.254;9.618;2022-07-06T01:17:48;16.20;86.80
15355;DHT22;7777;52.254;9.618;2022-07-06T01:20:22;16.20;86.70
15355;DHT22;7777;52.254;9.618;2022-07-06T01:22:50;16.30;86.80
15355;DHT22;7777;52.254;9.618;2022-07-06T01:25:17;16.30;86.70
15355;DHT22;7777;52.254;9.618;2022-07-06T01:27:43;16.30;86.70
15355;DHT22;7777;52.254;9.618;2022-07-06T01:30:11;16.30;86.30
15355;DHT22;7777;52.254;9.618;2022-07-06T01:32:40;16.40;87.00
15355;DHT22;7777;52.254;9.618;2022-07-06T01:35:09;16.30;86.60
15355;DHT22;7777;52.254;9.618;2022-07-06T01:37:36;16.30;87.00
15355;DHT22;7777;52.254;9.618;2022-07-06T01:40:07;16.40;87.30
15355;DHT22;7777;52.254;9.618;2022-07-06T01:42:35;16.40;86.50
15355;DHT22;7777;52.254;9.618;2022-07-06T01:45:02;16.40;86.90
15355;DHT22;7777;52.254;9.618;2022-07-06T01:47:28;16.40;86.70
15355;DHT22;7777;52.254;9.618;2022-07-06T01:49:55;16.40;86.10
15355;DHT22;7777;52.254;9.618;2022-07-06T01:52:23;16.40;86.50
15355;DHT22;7777;52.254;9.618;2022-07-06T01:54:49;16.50;85.90
15355;DHT22;7777;52.254;9.618;2022-07-06T01:57:14;16.50;86.60
15355;DHT22;7777;52.254;9.618;2022-07-06T01:59:40;16.50;86.30
15355;DHT22;7777;52.254;9.618;2022-07-06T02:02:06;16.50;86.90
15355;DHT22;7777;52.254;9.618;2022-07-06T02:04:32;16.40;87.10
15355;DHT22;7777;52.254;9.618;2022-07-06T02:06:57;16.50;86.50
15355;DHT22;7777;52.254;9.618;2022-07-06T02:09:23;16.40;86.70
15355;DHT22;7777;52.254;9.618;2022-07-06T02:11:49;16.50;86.70
15355;DHT22;7777;52.254;9.618;2022-07-06T02:14:15;16.50;86.70
15355;DHT22;7777;52.254;9.618;2022-07-06T02:16:40;16.50;86.40
15355;DHT22;7777;52.254;9.618;2022-07-06T02:19:06;16.50;87.00
15355;DHT22;7777;52.254;9.618;2022-07-06T02:21:32;16.40;87.40
15355;DHT22;7777;52.254;9.618;2022-07-06T02:23:58;16.40;87.00
15355;DHT22;7777;52.254;9.618;2022-07-06T02:26:23;16.40;87.50
15355;DHT22;7777;52.254;9.618;2022-07-06T02:28:49;16.40;87.00
15355;DHT22;7777;52.254;9.618;2022-07-06T02:31:15;16.40;86.80
15355;DHT22;7777;52.254;9.618;2022-07-06T02:33:41;16.40;87.50
15355;DHT22;7777;52.254;9.618;2022-07-06T02:36:07;16.40;87.20
15355;DHT22;7777;52.254;9.618;2022-07-06T02:38:33;16.40;87.20
15355;DHT22;7777;52.254;9.618;2022-07-06T02:40:59;16.40;87.90
15355;DHT22;7777;52.254;9.618;2022-07-06T02:43:25;16.40;87.90
15355;DHT22;7777;52.254;9.618;2022-07-06T02:45:51;16.40;87.40
15355;DHT22;7777;52.254;9.618;2022-07-06T02:48:17;16.40;87.90
15355;DHT22;7777;52.254;9.618;2022-07-06T02:50:44;16.40;87.90
15355;DHT22;7777;52.254;9.618;2022-07-06T02:53:10;16.40;88.00
15355;DHT22;7777;52.254;9.618;2022-07-06T02:55:36;16.40;88.30
15355;DHT22;7777;52.254;9.618;2022-07-06T02:58:02;16.40;88.70
15355;DHT22;7777;52.254;9.618;2022-07-06T03:00:27;16.30;88.80
15355;DHT22;7777;52.254;9.618;2022-07-06T03:02:53;16.30;89.20
15355;DHT22;7777;52.254;9.618;2022-07-06T03:05:19;16.30;88.40
15355;DHT22;7777;52.254;9.618;2022-07-06T03:07:45;16.40;88.50
15355;DHT22;7777;52.254;9.618;2022-07-06T03:10:10;16.40;88.30
15355;DHT22;7777;52.254;9.618;2022-07-06T03:12:36;16.30;88.60
15355;DHT22;7777;52.254;9.618;2022-07-06T03:15:02;16.30;88.40
15355;DHT22;7777;52.254;9.618;2022-07-06T03:17:28;16.30;89.50
15355;DHT22;7777;52.254;9.618;2022-07-06T03:19:54;16.30;89.00
15355;DHT22;7777;52.254;9.618;2022-07-06T03:22:19;16.30;88.70
15355;DHT22;7777;52.254;9.618;2022-07-06T03:24:45;16.30;89.20
15355;DHT22;7777;52.254;9.618;2022-07-06T03:27:11;16.30;88.90
15355;DHT22;7777;52.254;9.618;2022-07-06T03:29:36;16.30;89.00
15355;DHT22;7777;52.254;9.618;2022-07-06T03:32:02;16.30;89.00
15355;DHT22;7777;52.254;9.618;2022-07-06T03:34:28;16.30;89.70
15355;DHT22;7777;52.254;9.618;2022-07-06T03:36:54;16.20;89.60
15355;DHT22;7777;52.254;9.618;2022-07-06T03:39:20;16.30;88.80
15355;DHT22;7777;52.254;9.618;2022-07-06T03:41:46;16.30;89.30
15355;DHT22;7777;52.254;9.618;2022-07-06T03:44:11;16.30;88.90
15355;DHT22;7777;52.254;9.618;2022-07-06T03:46:37;16.20;89.20
15355;DHT22;7777;52.254;9.618;2022-07-06T03:49:03;16.20;90.00
15355;DHT22;7777;52.254;9.618;2022-07-06T03:51:28;16.20;89.50
15355;DHT22;7777;52.254;9.618;2022-07-06T03:53:54;16.20;89.00
15355;DHT22;7777;52.254;9.618;2022-07-06T03:56:20;16.20;89.40
15355;DHT22;7777;52.254;9.618;2022-07-06T03:59:00;16.20;89.50
15355;DHT22;7777;52.254;9.618;2022-07-06T04:01:27;16.20;89.30
15355;DHT22;7777;52.254;9.618;2022-07-06T04:03:53;16.20;89.80
15355;DHT22;7777;52.254;9.618;2022-07-06T04:06:19;16.20;89.30
15355;DHT22;7777;52.254;9.618;2022-07-06T04:08:45;16.20;89.20
15355;DHT22;7777;52.254;9.618;2022-07-06T04:11:11;16.20;88.90
15355;DHT22;7777;52.254;9.618;2022-07-06T04:13:37;16.30;88.90
15355;DHT22;7777;52.254;9.618;2022-07-06T04:16:05;16.20;90.10
15355;DHT22;7777;52.254;9.618;2022-07-06T04:18:31;16.20;89.80
15355;DHT22;7777;52.254;9.618;2022-07-06T04:20:57;16.30;89.10
15355;DHT22;7777;52.254;9.618;2022-07-06T04:23:24;16.30;90.10
15355;DHT22;7777;52.254;9.618;2022-07-06T04:25:50;16.30;89.90
15355;DHT22;7777;52.254;9.618;2022-07-06T04:28:16;16.30;90.20
15355;DHT22;7777;52.254;9.618;2022-07-06T04:30:44;16.30;90.10
15355;DHT22;7777;52.254;9.618;2022-07-06T04:33:09;16.30;89.60
15355;DHT22;7777;52.254;9.618;2022-07-06T04:35:35;16.40;90.30
15355;DHT22;7777;52.254;9.618;2022-07-06T04:38:01;16.40;90.10
15355;DHT22;7777;52.254;9.618;2022-07-06T04:40:27;16.40;90.30
15355;DHT22;7777;52.254;9.618;2022-07-06T04:42:52;16.40;90.30
15355;DHT22;7777;52.254;9.618;2022-07-06T04:45:18;16.40;90.20
15355;DHT22;7777;52.254;9.618;2022-07-06T04:47:44;16.50;90.10
15355;DHT22;7777;52.254;9.618;2022-07-06T04:50:12;16.50;90.30
15355;DHT22;7777;52.254;9.618;2022-07-06T04:52:38;16.50;90.70
15355;DHT22;7777;52.254;9.618;2022-07-06T04:55:04;16.50;90.40
15355;DHT22;7777;52.254;9.618;2022-07-06T04:57:32;16.50;90.70
15355;DHT22;7777;52.254;9.618;2022-07-06T04:59:57;16.50;90.70
15355;DHT22;7777;52.254;9.618;2022-07-06T05:02:23;16.60;91.00
15355;DHT22;7777;52.254;9.618;2022-07-06T05:04:49;16.60;90.50
15355;DHT22;7777;52.254;9.618;2022-07-06T05:07:15;16.70;90.30
15355;DHT22;7777;52.254;9.618;2022-07-06T05:09:40;16.70;90.30
15355;DHT22;7777;52.254;9.618;2022-07-06T05:12:07;16.70;90.50
15355;DHT22;7777;52.254;9.618;2022-07-06T05:14:34;16.80;90.60
15355;DHT22;7777;52.254;9.618;2022-07-06T05:17:00;16.70;90.60
15355;DHT22;7777;52.254;9.618;2022-07-06T05:19:25;16.80;90.90
15355;DHT22;7777;52.254;9.618;2022-07-06T05:21:51;16.80;91.00
15355;DHT22;7777;52.254;9.618;2022-07-06T05:24:17;16.80;90.70
15355;DHT22;7777;52.254;9.618;2022-07-06T05:26:44;16.80;90.90
15355;DHT22;7777;52.254;9.618;2022-07-06T05:29:10;16.80;90.90
15355;DHT22;7777;52.254;9.618;2022-07-06T05:31:36;16.80;90.90
15355;DHT22;7777;52.254;9.618;2022-07-06T05:34:02;16.80;90.70
15355;DHT22;7777;52.254;9.618;2022-07-06T05:36:28;16.90;90.70
15355;DHT22;7777;52.254;9.618;2022-07-06T05:38:54;16.90;90.60
15355;DHT22;7777;52.254;9.618;2022-07-06T05:41:20;16.90;90.80
15355;DHT22;7777;52.254;9.618;2022-07-06T05:43:46;17.00;90.80
15355;DHT22;7777;52.254;9.618;2022-07-06T05:46:15;17.00;90.80
15355;DHT22;7777;52.254;9.618;2022-07-06T05:48:47;17.00;90.70
15355;DHT22;7777;52.254;9.618;2022-07-06T05:51:32;17.10;90.80
15355;DHT22;7777;52.254;9.618;2022-07-06T05:53:58;17.10;90.60
15355;DHT22;7777;52.254;9.618;2022-07-06T05:56:24;17.10;90.70
15355;DHT22;7777;52.254;9.618;2022-07-06T05:58:49;17.10;90.80
15355;DHT22;7777;52.254;9.618;2022-07-06T06:01:15;17.10;90.80
15355;DHT22;7777;52.254;9.618;2022-07-06T06:03:41;17.20;90.70
15355;DHT22;7777;52.254;9.618;2022-07-06T06:06:36;17.20;90.60
15355;DHT22;7777;52.254;9.618;2022-07-06T06:09:22;17.20;90.80
15355;DHT22;7777;52.254;9.618;2022-07-06T06:11:55;17.30;90.60
15355;DHT22;7777;52.254;9.618;2022-07-06T06:14:37;17.30;90.70
15355;DHT22;7777;52.254;9.618;2022-07-06T06:17:12;17.30;90.70
15355;DHT22;7777;52.254;9.618;2022-07-06T06:19:41;17.30;90.40
15355;DHT22;7777;52.254;9.618;2022-07-06T06:22:12;17.40;90.20
15355;DHT22;7777;52.254;9.618;2022-07-06T06:24:39;17.40;90.30
15355;DHT22;7777;52.254;9.618;2022-07-06T06:27:33;17.40;90.20
15355;DHT22;7777;52.254;9.618;2022-07-06T06:30:06;17.40;90.30
15355;DHT22;7777;52.254;9.618;2022-07-06T06:33:12;17.40;90.40
15355;DHT22;7777;52.254;9.618;2022-07-06T06:35:52;17.50;90.30
15355;DHT22;7777;52.254;9.618;2022-07-06T06:38:20;17.50;90.20
15355;DHT22;7777;52.254;9.618;2022-07-06T06:40:50;17.50;90.30
15355;DHT22;7777;52.254;9.618;2022-07-06T06:43:19;17.50;90.20
15355;DHT22;7777;52.254;9.618;2022-07-06T06:45:45;17.60;90.00
15355;DHT22;7777;52.254;9.618;2022-07-06T06:48:12;17.60;90.00
15355;DHT22;7777;52.254;9.618;2022-07-06T06:50:37;17.60;89.70
15355;DHT22;7777;52.254;9.618;2022-07-06T06:53:03;17.60;89.40
15355;DHT22;7777;52.254;9.618;2022-07-06T06:55:29;17.60;89.50
15355;DHT22;7777;52.254;9.618;2022-07-06T06:57:55;17.60;89.10
15355;DHT22;7777;52.254;9.618;2022-07-06T07:00:23;17.70;89.30
15355;DHT22;7777;52.254;9.618;2022-07-06T07:02:49;17.70;88.90
15355;DHT22;7777;52.254;9.618;2022-07-06T07:05:14;17.70;88.90
15355;DHT22;7777;52.254;9.618;2022-07-06T07:07:40;17.70;88.90
15355;DHT22;7777;52.254;9.618;2022-07-06T07:10:06;17.70;88.30
15355;DHT22;7777;52.254;9.618;2022-07-06T07:12:33;17.70;88.10
15355;DHT22;7777;52.254;9.618;2022-07-06T07:14:59;17.70;88.20
15355;DHT22;7777;52.254;9.618;2022-07-06T07:17:25;17.70;88.90
15355;DHT22;7777;52.254;9.618;2022-07-06T07:19:51;17.70;88.10
15355;DHT22;7777;52.254;9.618;2022-07-06T07:22:17;17.70;88.10
15355;DHT22;7777;52.254;9.618;2022-07-06T07:24:42;17.70;88.30
15355;DHT22;7777;52.254;9.618;2022-07-06T07:27:14;17.80;88.50
15355;DHT22;7777;52.254;9.618;2022-07-06T07:29:40;17.80;88.70
15355;DHT22;7777;52.254;9.618;2022-07-06T07:32:06;17.80;88.10
15355;DHT22;7777;52.254;9.618;2022-07-06T07:34:32;17.90;88.20
15355;DHT22;7777;52.254;9.618;2022-07-06T07:36:57;17.90;87.90
15355;DHT22;7777;52.254;9.618;2022-07-06T07:39:23;17.90;87.50
15355;DHT22;7777;52.254;9.618;2022-07-06T07:41:49;17.90;87.50
15355;DHT22;7777;52.254;9.618;2022-07-06T07:44:16;17.90;87.20
15355;DHT22;7777;52.254;9.618;2022-07-06T07:46:42;18.00;87.30
15355;DHT22;7777;52.254;9.618;2022-07-06T07:49:07;18.10;87.20
15355;DHT22;7777;52.254;9.618;2022-07-06T07:51:33;18.10;87.20
15355;DHT22;7777;52.254;9.618;2022-07-06T07:53:59;18.10;87.00
15355;DHT22;7777;52.254;9.618;2022-07-06T07:56:25;18.10;87.00
15355;DHT22;7777;52.254;9.618;2022-07-06T07:58:51;18.20;87.20
15355;DHT22;7777;52.254;9.618;2022-07-06T08:01:17;18.20;87.00
15355;DHT22;7777;52.254;9.618;2022-07-06T08:03:43;18.20;87.10
15355;DHT22;7777;52.254;9.618;2022-07-06T08:06:08;18.30;87.10
15355;DHT22;7777;52.254;9.618;2022-07-06T08:08:34;18.30;86.90
15355;DHT22;7777;52.254;9.618;2022-07-06T08:11:00;18.30;86.80
15355;DHT22;7777;52.254;9.618;2022-07-06T08:13:26;18.40;86.70
15355;DHT22;7777;52.254;9.618;2022-07-06T08:15:52;18.40;86.00
15355;DHT22;7777;52.254;9.618;2022-07-06T08:18:18;18.40;86.20
15355;DHT22;7777;52.254;9.618;2022-07-06T08:20:43;18.50;86.20
15355;DHT22;7777;52.254;9.618;2022-07-06T08:23:09;18.50;85.80
15355;DHT22;7777;52.254;9.618;2022-07-06T08:25:35;18.50;85.00
15355;DHT22;7777;52.254;9.618;2022-07-06T08:28:01;18.50;84.00
15355;DHT22;7777;52.254;9.618;2022-07-06T08:30:27;18.50;83.60
15355;DHT22;7777;52.254;9.618;2022-07-06T08:32:52;18.60;83.30
15355;DHT22;7777;52.254;9.618;2022-07-06T08:35:18;18.60;83.40
15355;DHT22;7777;52.254;9.618;2022-07-06T08:37:44;18.60;83.90
15355;DHT22;7777;52.254;9.618;2022-07-06T08:40:11;18.60;84.50
15355;DHT22;7777;52.254;9.618;2022-07-06T08:42:36;18.70;84.50
15355;DHT22;7777;52.254;9.618;2022-07-06T08:45:05;18.70;84.00
15355;DHT22;7777;52.254;9.618;2022-07-06T08:47:32;18.70;83.60
15355;DHT22;7777;52.254;9.618;2022-07-06T08:50:02;18.80;83.60
15355;DHT22;7777;52.254;9.618;2022-07-06T08:52:29;18.80;83.60
15355;DHT22;7777;52.254;9.618;2022-07-06T08:54:55;18.80;83.50
15355;DHT22;7777;52.254;9.618;2022-07-06T08:57:22;18.80;83.70
15355;DHT22;7777;52.254;9.618;2022-07-06T08:59:48;18.90;83.70
15355;DHT22;7777;52.254;9.618;2022-07-06T09:02:17;18.90;83.60
15355;DHT22;7777;52.254;9.618;2022-07-06T09:04:43;19.00;84.30
15355;DHT22;7777;52.254;9.618;2022-07-06T09:07:13;19.10;84.60
15355;DHT22;7777;52.254;9.618;2022-07-06T09:09:39;19.10;84.30
15355;DHT22;7777;52.254;9.618;2022-07-06T09:12:11;19.20;84.40
15355;DHT22;7777;52.254;9.618;2022-07-06T09:14:38;19.20;83.20
15355;DHT22;7777;52.254;9.618;2022-07-06T09:17:05;19.20;83.40
15355;DHT22;7777;52.254;9.618;2022-07-06T09:19:33;19.20;83.30
15355;DHT22;7777;52.254;9.618;2022-07-06T09:22:00;19.30;83.40
15355;DHT22;7777;52.254;9.618;2022-07-06T09:24:27;19.30;82.60
15355;DHT22;7777;52.254;9.618;2022-07-06T09:26:58;19.30;83.30
15355;DHT22;7777;52.254;9.618;2022-07-06T09:29:28;19.40;83.40
15355;DHT22;7777;52.254;9.618;2022-07-06T09:31:59;19.40;83.40
15355;DHT22;7777;52.254;9.618;2022-07-06T09:34:40;19.40;81.00
15355;DHT22;7777;52.254;9.618;2022-07-06T09:37:07;19.40;81.60
15355;DHT22;7777;52.254;9.618;2022-07-06T09:39:33;19.40;79.40
15355;DHT22;7777;52.254;9.618;2022-07-06T09:42:00;19.40;78.50
15355;DHT22;7777;52.254;9.618;2022-07-06T09:44:47;19.30;79.40
15355;DHT22;7777;52.254;9.618;2022-07-06T09:47:14;19.30;80.10
15355;DHT22;7777;52.254;9.618;2022-07-06T09:49:40;19.40;80.60
15355;DHT22;7777;52.254;9.618;2022-07-06T09:52:08;19.40;80.30
15355;DHT22;7777;52.254;9.618;2022-07-06T09:54:35;19.40;80.70
15355;DHT22;7777;52.254;9.618;2022-07-06T09:57:03;19.40;80.30
15355;DHT22;7777;52.254;9.618;2022-07-06T09:59:30;19.30;80.00
15355;DHT22;7777;52.254;9.618;2022-07-06T10:01:59;19.30;80.40
15355;DHT22;7777;52.254;9.618;2022-07-06T10:04:28;19.30;78.60
15355;DHT22;7777;52.254;9.618;2022-07-06T10:06:56;19.30;78.30
15355;DHT22;7777;52.254;9.618;2022-07-06T10:09:24;19.30;79.40
15355;DHT22;7777;52.254;9.618;2022-07-06T10:11:56;19.40;80.10
15355;DHT22;7777;52.254;9.618;2022-07-06T10:14:25;19.50;80.10
15355;DHT22;7777;52.254;9.618;2022-07-06T10:16:57;19.50;79.40
15355;DHT22;7777;52.254;9.618;2022-07-06T10:19:26;19.60;80.30
15355;DHT22;7777;52.254;9.618;2022-07-06T10:21:53;19.70;78.90
15355;DHT22;7777;52.254;9.618;2022-07-06T10:24:20;19.70;77.90
15355;DHT22;7777;52.254;9.618;2022-07-06T10:26:49;19.60;77.70
15355;DHT22;7777;52.254;9.618;2022-07-06T10:29:15;19.70;78.70
15355;DHT22;7777;52.254;9.618;2022-07-06T10:31:44;19.70;78.40
15355;DHT22;7777;52.254;9.618;2022-07-06T10:34:12;19.80;79.10
15355;DHT22;7777;52.254;9.618;2022-07-06T10:36:41;19.70;78.10
15355;DHT22;7777;52.254;9.618;2022-07-06T10:39:09;19.70;77.30
15355;DHT22;7777;52.254;9.618;2022-07-06T10:41:54;19.80;77.60
15355;DHT22;7777;52.254;9.618;2022-07-06T10:44:22;19.70;78.00
15355;DHT22;7777;52.254;9.618;2022-07-06T10:46:51;19.70;77.70
15355;DHT22;7777;52.254;9.618;2022-07-06T10:49:18;19.60;77.30
15355;DHT22;7777;52.254;9.618;2022-07-06T10:51:45;19.60;76.60
15355;DHT22;7777;52.254;9.618;2022-07-06T10:54:11;19.60;77.20
15355;DHT22;7777;52.254;9.618;2022-07-06T10:56:43;19.60;77.60
15355;DHT22;7777;52.254;9.618;2022-07-06T11:01:40;19.60;77.70
15355;DHT22;7777;52.254;9.618;2022-07-06T11:04:09;19.60;77.70
15355;DHT22;7777;52.254;9.618;2022-07-06T11:06:38;19.60;78.10
15355;DHT22;7777;52.254;9.618;2022-07-06T11:09:06;19.60;78.30
15355;DHT22;7777;52.254;9.618;2022-07-06T11:14:06;19.70;77.80
15355;DHT22;7777;52.254;9.618;2022-07-06T11:16:38;19.80;78.10
15355;DHT22;7777;52.254;9.618;2022-07-06T11:19:26;19.80;77.80
15355;DHT22;7777;52.254;9.618;2022-07-06T11:21:55;19.80;77.10
15355;DHT22;7777;52.254;9.618;2022-07-06T11:24:37;19.90;78.00
15355;DHT22;7777;52.254;9.618;2022-07-06T11:27:05;19.90;77.20
15355;DHT22;7777;52.254;9.618;2022-07-06T11:29:33;20.00;77.10
15355;DHT22;7777;52.254;9.618;2022-07-06T11:32:05;19.90;75.70
15355;DHT22;7777;52.254;9.618;2022-07-06T11:34:41;20.00;76.10
15355;DHT22;7777;52.254;9.618;2022-07-06T11:37:14;20.10;76.90
15355;DHT22;7777;52.254;9.618;2022-07-06T11:39:44;20.10;76.00
15355;DHT22;7777;52.254;9.618;2022-07-06T11:42:15;20.10;76.10
15355;DHT22;7777;52.254;9.618;2022-07-06T11:44:43;20.10;76.90
15355;DHT22;7777;52.254;9.618;2022-07-06T11:47:10;20.20;76.90
15355;DHT22;7777;52.254;9.618;2022-07-06T11:49:39;20.30;76.40
15355;DHT22;7777;52.254;9.618;2022-07-06T11:52:11;20.40;76.40
15355;DHT22;7777;52.254;9.618;2022-07-06T11:54:38;20.40;76.10
15355;DHT22;7777;52.254;9.618;2022-07-06T11:57:07;20.50;75.40
15355;DHT22;7777;52.254;9.618;2022-07-06T11:59:36;20.50;73.90
15355;DHT22;7777;52.254;9.618;2022-07-06T12:02:11;20.50;74.00
15355;DHT22;7777;52.254;9.618;2022-07-06T12:04:42;20.50;74.80
15355;DHT22;7777;52.254;9.618;2022-07-06T12:07:12;20.50;75.30
15355;DHT22;7777;52.254;9.618;2022-07-06T12:09:41;20.50;75.00
15355;DHT22;7777;52.254;9.618;2022-07-06T12:12:08;20.50;74.60
15355;DHT22;7777;52.254;9.618;2022-07-06T12:14:37;20.50;74.80
15355;DHT22;7777;52.254;9.618;2022-07-06T12:17:04;20.50;75.00
15355;DHT22;7777;52.254;9.618;2022-07-06T12:19:31;20.60;75.20
15355;DHT22;7777;52.254;9.618;2022-07-06T12:21:57;20.70;74.40
15355;DHT22;7777;52.254;9.618;2022-07-06T12:24:25;20.70;74.30
15355;DHT22;7777;52.254;9.618;2022-07-06T12:27:09;20.80;73.50
15355;DHT22;7777;52.254;9.618;2022-07-06T12:29:49;20.80;74.30
15355;DHT22;7777;52.254;9.618;2022-07-06T12:32:21;20.90;74.30
15355;DHT22;7777;52.254;9.618;2022-07-06T12:35:08;21.00;74.80
15355;DHT22;7777;52.254;9.618;2022-07-06T12:37:35;21.00;74.70
15355;DHT22;7777;52.254;9.618;2022-07-06T12:40:02;21.10;74.60
15355;DHT22;7777;52.254;9.618;2022-07-06T12:42:45;21.10;74.70
15355;DHT22;7777;52.254;9.618;2022-07-06T12:45:12;21.20;73.70
15355;DHT22;7777;52.254;9.618;2022-07-06T12:47:38;21.30;74.60
15355;DHT22;7777;52.254;9.618;2022-07-06T12:50:10;21.30;72.50
15355;DHT22;7777;52.254;9.618;2022-07-06T12:52:37;21.40;74.20
15355;DHT22;7777;52.254;9.618;2022-07-06T12:55:04;21.40;73.80
15355;DHT22;7777;52.254;9.618;2022-07-06T12:57:45;21.40;73.50
15355;DHT22;7777;52.254;9.618;2022-07-06T13:00:12;21.50;73.80
15355;DHT22;7777;52.254;9.618;2022-07-06T13:02:38;21.60;73.80
15355;DHT22;7777;52.254;9.618;2022-07-06T13:05:06;21.60;73.20
15355;DHT22;7777;52.254;9.618;2022-07-06T13:07:35;21.60;73.40
15355;DHT22;7777;52.254;9.618;2022-07-06T13:10:06;21.60;73.50
15355;DHT22;7777;52.254;9.618;2022-07-06T13:12:34;21.60;73.50
15355;DHT22;7777;52.254;9.618;2022-07-06T13:15:00;21.60;74.10
15355;DHT22;7777;52.254;9.618;2022-07-06T13:17:26;21.60;74.30
15355;DHT22;7777;52.254;9.618;2022-07-06T13:19:52;21.60;74.00
15355;DHT22;7777;52.254;9.618;2022-07-06T13:22:18;21.60;73.60
15355;DHT22;7777;52.254;9.618;2022-07-06T13:24:44;21.60;74.60
15355;DHT22;7777;52.254;9.618;2022-07-06T13:27:11;21.60;73.60
15355;DHT22;7777;52.254;9.618;2022-07-06T13:29:37;21.60;73.40
15355;DHT22;7777;52.254;9.618;2022-07-06T13:32:07;21.60;73.00
15355;DHT22;7777;52.254;9.618;2022-07-06T13:34:33;21.60;73.20
15355;DHT22;7777;52.254;9.618;2022-07-06T13:37:00;21.60;73.20
15355;DHT22;7777;52.254;9.618;2022-07-06T13:39:27;21.50;73.30
15355;DHT22;7777;52.254;9.618;2022-07-06T13:41:56;21.50;73.00
15355;DHT22;7777;52.254;9.618;2022-07-06T13:44:22;21.50;73.80
15355;DHT22;7777;52.254;9.618;2022-07-06T13:46:49;21.50;73.40
15355;DHT22;7777;52.254;9.618;2022-07-06T13:49:15;21.60;74.00
15355;DHT22;7777;52.254;9.618;2022-07-06T13:51:41;21.60;74.10
15355;DHT22;7777;52.254;9.618;2022-07-06T13:54:08;21.60;72.80
15355;DHT22;7777;52.254;9.618;2022-07-06T13:56:34;21.70;73.90
15355;DHT22;7777;52.254;9.618;2022-07-06T13:59:00;21.80;74.00
15355;DHT22;7777;52.254;9.618;2022-07-06T14:01:26;21.80;73.40
15355;DHT22;7777;52.254;9.618;2022-07-06T14:03:52;21.90;74.00
15355;DHT22;7777;52.254;9.618;2022-07-06T14:06:19;21.90;72.20
15355;DHT22;7777;52.254;9.618;2022-07-06T14:08:45;22.00;72.80
15355;DHT22;7777;52.254;9.618;2022-07-06T14:11:10;22.10;73.40
15355;DHT22;7777;52.254;9.618;2022-07-06T14:13:37;22.20;73.60
15355;DHT22;7777;52.254;9.618;2022-07-06T14:16:04;22.30;73.40
15355;DHT22;7777;52.254;9.618;2022-07-06T14:18:31;22.50;73.40
15355;DHT22;7777;52.254;9.618;2022-07-06T14:20:57;22.60;72.70
15355;DHT22;7777;52.254;9.618;2022-07-06T14:23:23;22.60;71.60
15355;DHT22;7777;52.254;9.618;2022-07-06T14:25:50;22.60;72.30
15355;DHT22;7777;52.254;9.618;2022-07-06T14:28:16;22.70;73.40
15355;DHT22;7777;52.254;9.618;2022-07-06T14:30:43;22.80;71.40
15355;DHT22;7777;52.254;9.618;2022-07-06T14:33:11;22.60;70.70
15355;DHT22;7777;52.254;9.618;2022-07-06T14:35:43;22.60;72.20
15355;DHT22;7777;52.254;9.618;2022-07-06T14:38:13;22.60;71.40
15355;DHT22;7777;52.254;9.618;2022-07-06T14:40:41;22.50;71.40
15355;DHT22;7777;52.254;9.618;2022-07-06T14:43:07;22.40;71.10
15355;DHT22;7777;52.254;9.618;2022-07-06T14:45:36;22.40;72.30
15355;DHT22;7777;52.254;9.618;2022-07-06T14:48:02;22.50;72.10
15355;DHT22;7777;52.254;9.618;2022-07-06T14:50:29;22.40;71.10
15355;DHT22;7777;52.254;9.618;2022-07-06T14:52:55;22.40;72.20
15355;DHT22;7777;52.254;9.618;2022-07-06T14:55:22;22.30;71.80
15355;DHT22;7777;52.254;9.618;2022-07-06T14:57:48;22.20;70.60
15355;DHT22;7777;52.254;9.618;2022-07-06T15:00:15;22.20;72.00
15355;DHT22;7777;52.254;9.618;2022-07-06T15:02:41;22.20;72.50
15355;DHT22;7777;52.254;9.618;2022-07-06T15:05:12;22.20;72.00
15355;DHT22;7777;52.254;9.618;2022-07-06T15:07:38;22.20;72.20
15355;DHT22;7777;52.254;9.618;2022-07-06T15:10:05;22.20;71.90
15355;DHT22;7777;52.254;9.618;2022-07-06T15:12:31;22.20;71.90
15355;DHT22;7777;52.254;9.618;2022-07-06T15:14:57;22.30;71.90
15355;DHT22;7777;52.254;9.618;2022-07-06T15:17:23;22.30;72.50
15355;DHT22;7777;52.254;9.618;2022-07-06T15:19:49;22.30;72.10
15355;DHT22;7777;52.254;9.618;2022-07-06T15:22:15;22.40;72.00
15355;DHT22;7777;52.254;9.618;2022-07-06T15:24:41;22.40;72.10
15355;DHT22;7777;52.254;9.618;2022-07-06T15:27:07;22.40;71.70
15355;DHT22;7777;52.254;9.618;2022-07-06T15:29:33;22.30;71.30
15355;DHT22;7777;52.254;9.618;2022-07-06T15:31:59;22.30;71.40
15355;DHT22;7777;52.254;9.618;2022-07-06T15:34:25;22.30;71.30
15355;DHT22;7777;52.254;9.618;2022-07-06T15:36:51;22.30;71.60
15355;DHT22;7777;52.254;9.618;2022-07-06T15:39:17;22.30;70.80
15355;DHT22;7777;52.254;9.618;2022-07-06T15:41:43;22.30;71.40
15355;DHT22;7777;52.254;9.618;2022-07-06T15:44:09;22.20;71.10
15355;DHT22;7777;52.254;9.618;2022-07-06T15:46:38;22.20;70.90
15355;DHT22;7777;52.254;9.618;2022-07-06T15:49:09;22.20;71.30
15355;DHT22;7777;52.254;9.618;2022-07-06T15:51:34;22.20;70.80
15355;DHT22;7777;52.254;9.618;2022-07-06T15:54:00;22.20;71.10